createdAt,value
2018-10-16T00:01:41.433Z,14.27
2018-10-16T00:04:13.603Z,14.87
2018-10-16T00:06:45.982Z,15.00
2018-10-16T00:09:18.224Z,15.07
2018-10-16T00:12:15.340Z,15.33
2018-10-16T00:14:47.567Z,14.70
2018-10-16T00:17:19.760Z,14.10
2018-10-16T00:19:52.044Z,13.33
2018-10-16T00:22:24.261Z,13.13
2018-10-16T00:24:56.482Z,14.07
2018-10-16T00:27:28.711Z,13.40
2018-10-16T00:30:00.996Z,13.67
2018-10-16T00:32:33.288Z,14.83
2018-10-16T00:35:05.791Z,15.73
2018-10-16T00:37:39.020Z,15.93
2018-10-16T00:40:11.745Z,16.30
2018-10-16T00:42:43.953Z,15.77
2018-10-16T00:45:16.213Z,15.37
2018-10-16T00:47:48.470Z,15.13
2018-10-16T00:50:20.742Z,15.47
2018-10-16T00:52:53.031Z,15.70
2018-10-16T00:55:25.220Z,16.50
2018-10-16T00:57:57.531Z,15.87
2018-10-16T01:00:29.760Z,15.50
2018-10-16T01:03:02.073Z,15.17
2018-10-16T01:05:34.316Z,15.60
2018-10-16T01:08:06.535Z,15.77
2018-10-16T01:10:38.794Z,15.53
2018-10-16T01:13:11.110Z,14.27
2018-10-16T01:15:43.362Z,14.40
2018-10-16T01:18:15.549Z,15.27
2018-10-16T01:20:47.791Z,15.83
2018-10-16T01:23:19.997Z,15.37
2018-10-16T01:25:52.231Z,14.83
2018-10-16T01:28:24.568Z,15.07
2018-10-16T01:30:56.847Z,15.13
2018-10-16T01:33:29.078Z,15.10
2018-10-16T01:36:01.324Z,15.50
2018-10-16T01:38:33.598Z,15.73
2018-10-16T01:41:05.811Z,15.27
2018-10-16T01:43:38.213Z,15.60
2018-10-16T01:46:11.163Z,16.13
2018-10-16T01:48:43.475Z,15.87
2018-10-16T01:51:15.707Z,15.63
2018-10-16T01:53:48.123Z,15.50
2018-10-16T01:56:20.376Z,16.03
2018-10-16T01:58:52.680Z,15.80
2018-10-16T02:01:24.923Z,16.17
2018-10-16T02:03:57.226Z,15.87
2018-10-16T02:06:29.426Z,14.70
2018-10-16T02:09:01.745Z,15.37
2018-10-16T02:11:33.940Z,14.83
2018-10-16T02:14:06.224Z,14.93
2018-10-16T02:16:38.550Z,15.03
2018-10-16T02:19:10.813Z,14.00
2018-10-16T02:21:43.080Z,13.27
2018-10-16T02:24:15.337Z,13.53
2018-10-16T02:26:47.627Z,14.07
2018-10-16T02:29:20.108Z,14.27
2018-10-16T02:31:52.378Z,14.93
2018-10-16T02:34:24.688Z,14.90
2018-10-16T02:36:56.897Z,14.77
2018-10-16T02:39:29.214Z,15.27
2018-10-16T02:42:01.473Z,14.70
2018-10-16T02:44:33.862Z,15.43
2018-10-16T02:47:06.160Z,14.63
2018-10-16T02:49:38.381Z,14.47
2018-10-16T02:52:10.603Z,13.93
2018-10-16T02:54:42.919Z,13.57
2018-10-16T02:57:15.201Z,15.47
2018-10-16T02:59:47.445Z,14.57
2018-10-16T03:02:19.733Z,16.23
2018-10-16T03:04:51.979Z,15.33
2018-10-16T03:07:24.301Z,16.30
2018-10-16T03:09:56.492Z,15.87
2018-10-16T03:12:28.783Z,16.47
2018-10-16T03:15:01.047Z,16.17
2018-10-16T03:17:33.331Z,15.50
2018-10-16T03:20:05.767Z,16.37
2018-10-16T03:22:38.349Z,16.77
2018-10-16T03:25:13.221Z,15.40
2018-10-16T03:27:45.443Z,16.10
2018-10-16T03:30:17.728Z,14.97
2018-10-16T03:32:49.949Z,16.50
2018-10-16T03:35:22.208Z,15.53
2018-10-16T03:37:54.456Z,15.43
2018-10-16T03:40:26.715Z,15.70
2018-10-16T03:42:58.935Z,16.90
2018-10-16T03:45:31.313Z,15.53
2018-10-16T03:48:03.553Z,15.60
2018-10-16T03:50:35.813Z,16.47
2018-10-16T03:53:08.444Z,17.47
2018-10-16T03:55:40.661Z,16.73
2018-10-16T03:58:12.898Z,16.73
2018-10-16T04:00:45.156Z,17.97
2018-10-16T04:03:17.379Z,18.47
2018-10-16T04:11:51.125Z,16.73
2018-10-16T04:20:41.796Z,17.63
2018-10-16T04:24:23.793Z,18.57
2018-10-16T04:29:45.652Z,19.27
2018-10-16T04:38:41.139Z,17.53
2018-10-16T04:41:31.890Z,18.73
2018-10-16T04:44:22.583Z,17.70
2018-10-16T04:47:13.337Z,17.43
2018-10-16T04:53:00.081Z,16.27
2018-10-16T05:01:49.381Z,17.57
2018-10-16T05:04:40.094Z,17.93
2018-10-16T05:13:29.193Z,18.90
2018-10-16T05:22:08.766Z,17.83
2018-10-16T05:24:59.414Z,17.87
2018-10-16T05:27:50.321Z,16.27
2018-10-16T05:30:41.078Z,17.13
2018-10-16T05:39:16.456Z,17.90
2018-10-16T05:45:03.022Z,17.50
2018-10-16T05:53:58.673Z,18.20
2018-10-16T06:02:21.827Z,18.57
2018-10-16T06:05:13.256Z,19.47
2018-10-16T06:11:06.441Z,17.53
2018-10-16T06:16:59.090Z,17.30
2018-10-16T06:25:54.810Z,17.30
2018-10-16T07:22:54.715Z,21.97
2018-10-16T07:28:48.435Z,21.10
2018-10-16T07:34:35.337Z,19.87
2018-10-16T07:54:35.062Z,19.10
2018-10-16T08:00:29.246Z,19.00
2018-10-16T09:01:49.618Z,19.17
2018-10-16T09:30:58.708Z,19.60
2018-10-16T09:36:40.756Z,20.20
2018-10-16T10:17:31.564Z,19.63
2018-10-16T10:20:23.630Z,20.47
2018-10-16T10:23:18.582Z,20.07
2018-10-16T10:26:16.361Z,20.40
2018-10-16T10:29:08.934Z,20.73
2018-10-16T10:35:02.942Z,19.87
2018-10-16T10:37:55.153Z,19.10
2018-10-16T10:40:49.306Z,20.53
2018-10-16T10:43:41.779Z,19.67
2018-10-16T11:22:48.602Z,16.30
2018-10-16T11:34:56.885Z,14.23
2018-10-16T11:43:50.661Z,15.23
2018-10-16T11:46:43.228Z,15.57
2018-10-16T12:01:11.475Z,13.67
2018-10-16T12:04:02.563Z,13.90
2018-10-16T12:06:53.880Z,14.60
2018-10-16T12:27:47.217Z,14.30
2018-10-16T12:30:58.334Z,13.93
2018-10-16T12:34:01.043Z,13.80
2018-10-16T12:36:40.043Z,15.03
2018-10-16T12:39:30.614Z,15.43
2018-10-16T12:42:21.247Z,16.30
2018-10-16T12:45:12.003Z,15.67
2018-10-16T12:48:21.166Z,14.87
2018-10-16T12:51:30.739Z,15.43
2018-10-16T12:54:35.704Z,15.43
2018-10-16T12:57:32.572Z,15.10
2018-10-16T13:00:23.158Z,41.47
2018-10-16T13:03:17.596Z,14.77
2018-10-16T13:06:29.922Z,14.97
2018-10-16T13:09:21.140Z,14.10
2018-10-16T13:12:13.062Z,14.40
2018-10-16T13:15:05.261Z,14.83
2018-10-16T13:17:55.915Z,14.90
2018-10-16T13:21:05.090Z,14.70
2018-10-16T13:27:00.316Z,14.73
2018-10-16T13:29:51.043Z,15.03
2018-10-16T13:32:42.172Z,15.67
2018-10-16T13:35:33.063Z,14.63
2018-10-16T13:38:23.878Z,16.03
2018-10-16T13:41:14.458Z,15.43
2018-10-16T13:44:05.200Z,34.87
2018-10-16T13:46:55.726Z,29.23
2018-10-16T13:49:46.909Z,20.40
2018-10-16T13:52:37.995Z,16.53
2018-10-16T13:55:29.611Z,15.80
2018-10-16T13:58:39.458Z,15.13
2018-10-16T14:01:49.409Z,14.10
2018-10-16T14:04:40.061Z,15.07
2018-10-16T14:07:30.645Z,16.33
2018-10-16T14:13:36.815Z,16.20
2018-10-16T14:16:27.423Z,15.60
2018-10-16T14:22:28.511Z,16.33
2018-10-16T14:25:19.570Z,17.00
2018-10-16T14:28:28.716Z,16.53
2018-10-16T14:31:20.488Z,17.00
2018-10-16T14:34:11.501Z,16.30
2018-10-16T14:37:21.147Z,18.53
2018-10-16T14:40:14.091Z,17.87
2018-10-16T14:43:05.380Z,18.40
2018-10-16T14:45:56.040Z,18.03
2018-10-16T14:48:47.315Z,17.77
2018-10-16T14:51:37.995Z,18.57
2018-10-16T14:54:42.582Z,19.00
2018-10-16T14:57:31.279Z,19.80
2018-10-16T15:03:40.085Z,19.50
2018-10-16T15:06:34.572Z,18.57
2018-10-16T15:09:25.253Z,18.83
2018-10-16T15:12:15.878Z,19.93
2018-10-16T15:15:07.400Z,19.40
2018-10-16T15:18:11.697Z,20.30
2018-10-16T15:23:58.975Z,19.37
2018-10-16T15:26:58.217Z,18.97
2018-10-16T15:29:50.118Z,18.53
2018-10-16T15:32:41.055Z,19.20
2018-10-16T15:35:50.715Z,19.03
2018-10-16T15:38:41.346Z,19.67
2018-10-16T15:41:32.553Z,19.37
2018-10-16T15:44:23.195Z,21.23
2018-10-16T15:47:14.871Z,20.00
2018-10-16T15:50:05.823Z,19.40
2018-10-16T15:52:56.385Z,20.97
2018-10-16T15:55:46.989Z,20.67
2018-10-16T15:58:37.647Z,21.40
2018-10-16T16:01:28.435Z,20.40
2018-10-16T16:04:22.243Z,22.23
2018-10-16T16:07:12.839Z,23.10
2018-10-16T16:10:04.111Z,22.43
2018-10-16T16:13:08.365Z,23.43
2018-10-16T16:15:45.301Z,22.83
2018-10-16T16:18:36.074Z,24.07
2018-10-16T16:22:00.743Z,24.60
2018-10-16T16:24:37.181Z,23.80
2018-10-16T16:27:27.941Z,23.90
2018-10-16T16:30:18.549Z,23.47
2018-10-16T16:33:09.138Z,24.60
2018-10-16T16:39:13.254Z,24.20
2018-10-16T16:42:04.429Z,22.07
2018-10-16T16:44:55.803Z,24.57
2018-10-16T16:47:46.391Z,26.43
2018-10-16T16:50:37.003Z,24.80
2018-10-16T16:53:27.925Z,23.33
2018-10-16T16:56:32.251Z,23.70
2018-10-16T16:59:09.255Z,25.47
2018-10-16T17:02:00.006Z,25.10
2018-10-16T17:04:50.610Z,26.87
2018-10-16T17:07:41.612Z,25.50
2018-10-16T17:10:32.294Z,25.80
2018-10-16T17:16:34.247Z,25.83
2018-10-16T17:19:24.999Z,26.27
2018-10-16T17:22:16.945Z,24.87
2018-10-16T17:25:10.135Z,26.67
2018-10-16T17:28:00.950Z,26.90
2018-10-16T17:30:51.506Z,26.47
2018-10-16T17:33:42.353Z,27.20
2018-10-16T17:36:48.056Z,26.63
2018-10-16T17:39:43.790Z,24.27
2018-10-16T17:42:35.375Z,24.20
2018-10-16T17:45:25.964Z,24.07
2018-10-16T17:48:16.715Z,26.50
2018-10-16T17:51:08.365Z,26.40
2018-10-16T17:53:58.934Z,28.00
2018-10-16T17:57:09.318Z,28.87
2018-10-16T18:00:06.271Z,27.73
2018-10-16T18:02:56.890Z,26.43
2018-10-16T18:05:47.471Z,25.30
2018-10-16T18:08:51.903Z,26.33
2018-10-16T18:14:38.771Z,27.20
2018-10-16T18:17:46.767Z,27.37
2018-10-16T18:20:54.352Z,28.37
2018-10-16T18:23:31.415Z,27.63
2018-10-16T18:26:36.048Z,30.30
2018-10-16T18:29:13.030Z,28.17
2018-10-16T18:32:04.216Z,27.17
2018-10-16T18:34:55.797Z,27.50
2018-10-16T18:40:37.008Z,25.67
2018-10-16T18:43:28.525Z,26.27
2018-10-16T18:49:29.107Z,27.03
2018-10-16T18:55:30.616Z,27.00
2018-10-16T18:58:40.632Z,24.93
2018-10-16T19:01:32.271Z,25.97
2018-10-16T19:04:22.916Z,27.73
2018-10-16T19:07:15.984Z,28.80
2018-10-16T19:10:24.417Z,27.47
2018-10-16T19:13:14.954Z,28.47
2018-10-16T19:16:07.180Z,28.57
2018-10-16T19:18:58.291Z,26.70
2018-10-16T19:22:07.696Z,27.23
2018-10-16T19:24:51.812Z,27.77
2018-10-16T19:27:43.397Z,29.37
2018-10-16T19:30:34.735Z,27.23
2018-10-16T19:33:26.881Z,28.23
2018-10-16T19:36:17.722Z,27.20
2018-10-16T19:39:12.665Z,26.67
2018-10-16T19:42:03.496Z,26.23
2018-10-16T19:44:55.247Z,28.17
2018-10-16T19:47:46.872Z,27.10
2018-10-16T19:50:38.335Z,28.63
2018-10-16T19:53:29.776Z,27.97
2018-10-16T19:56:21.224Z,27.23
2018-10-16T19:59:12.284Z,26.37
2018-10-16T20:02:30.768Z,25.53
2018-10-16T20:05:42.620Z,22.20
2018-10-16T20:12:05.691Z,18.37
2018-10-16T20:14:59.314Z,18.23
2018-10-16T20:18:09.030Z,19.63
2018-10-16T20:21:02.192Z,25.53
2018-10-16T20:23:53.077Z,29.00
2018-10-16T20:26:46.339Z,25.73
2018-10-16T20:29:55.995Z,27.73
2018-10-16T20:32:47.740Z,29.70
2018-10-16T20:36:00.389Z,27.37
2018-10-16T20:38:54.017Z,29.57
2018-10-16T20:42:17.711Z,28.23
2018-10-16T20:45:15.369Z,22.67
2018-10-16T20:48:08.003Z,21.37
2018-10-16T20:50:59.746Z,21.47
2018-10-16T20:53:50.754Z,20.50
2018-10-16T20:56:41.789Z,20.53
2018-10-16T20:59:33.982Z,21.27
2018-10-16T21:02:47.469Z,21.53
2018-10-16T21:05:44.265Z,23.40
2018-10-16T21:08:57.510Z,22.60
2018-10-16T21:11:31.383Z,23.27
2018-10-16T21:14:23.108Z,22.87
2018-10-16T21:20:24.337Z,24.03
2018-10-16T21:23:16.274Z,22.00
2018-10-16T21:26:07.492Z,22.00
2018-10-16T21:29:17.275Z,22.07
2018-10-16T21:32:09.119Z,23.63
2018-10-16T21:35:00.233Z,24.43
2018-10-16T21:37:51.802Z,24.60
2018-10-16T21:40:45.409Z,23.03
2018-10-16T21:43:37.746Z,25.07
2018-10-16T21:46:29.221Z,24.53
2018-10-16T21:49:20.581Z,24.20
2018-10-16T21:52:11.945Z,21.73
2018-10-16T22:01:21.233Z,21.90
2018-10-16T22:04:12.796Z,20.90
2018-10-16T22:10:42.092Z,22.70
2018-10-16T22:13:35.081Z,20.97
2018-10-16T22:16:26.194Z,20.73
2018-10-16T22:19:17.704Z,23.17
2018-10-16T22:22:09.714Z,24.43
2018-10-16T22:25:01.233Z,24.23
2018-10-16T22:27:53.643Z,25.97
2018-10-16T22:33:54.752Z,24.87
2018-10-16T22:36:46.349Z,22.87
2018-10-16T22:39:38.721Z,22.67
2018-10-16T22:42:11.564Z,22.30
2018-10-16T22:45:02.440Z,22.43
2018-10-16T22:47:54.284Z,21.77
2018-10-16T22:50:45.294Z,21.63
2018-10-16T22:53:55.890Z,24.57
2018-10-16T22:57:05.712Z,24.43
2018-10-16T22:59:57.568Z,23.47
2018-10-16T23:03:07.424Z,23.50
2018-10-16T23:05:58.576Z,21.80
2018-10-16T23:09:01.568Z,22.33
2018-10-16T23:11:41.552Z,22.33
2018-10-16T23:14:32.561Z,23.30
2018-10-16T23:17:23.634Z,23.13
2018-10-16T23:20:34.222Z,23.33
2018-10-16T23:23:25.180Z,20.57
2018-10-16T23:26:16.295Z,23.40
2018-10-16T23:29:07.811Z,24.67
2018-10-16T23:32:17.713Z,25.20
2018-10-16T23:35:09.961Z,22.87
2018-10-16T23:38:01.302Z,23.70
